sensor_id;sensor_type;location;lat;lon;timestamp;P1;durP1;ratioP1;P2;durP2;ratioP2
60016;SDS011;45869;52.698;6.210;2023-04-03T00:00:03;2.45;;;0.60;;
60016;SDS011;45869;52.698;6.210;2023-04-03T00:02:29;2.20;;;0.60;;
60016;SDS011;45869;52.698;6.210;2023-04-03T00:04:55;2.78;;;0.80;;
60016;SDS011;45869;52.698;6.210;2023-04-03T00:07:21;2.50;;;0.65;;
60016;SDS011;45869;52.698;6.210;2023-04-03T00:09:47;1.88;;;0.52;;
60016;SDS011;45869;52.698;6.210;2023-04-03T00:12:13;3.97;;;0.73;;
60016;SDS011;45869;52.698;6.210;2023-04-03T00:14:40;1.55;;;0.52;;
60016;SDS011;45869;52.698;6.210;2023-04-03T00:17:09;2.95;;;0.70;;
60016;SDS011;45869;52.698;6.210;2023-04-03T00:19:35;4.07;;;0.70;;
60016;SDS011;45869;52.698;6.210;2023-04-03T00:22:01;3.67;;;0.70;;
60016;SDS011;45869;52.698;6.210;2023-04-03T00:24:27;4.30;;;0.70;;
60016;SDS011;45869;52.698;6.210;2023-04-03T00:26:56;3.13;;;0.82;;
60016;SDS011;45869;52.698;6.210;2023-04-03T00:29:22;2.75;;;0.70;;
60016;SDS011;45869;52.698;6.210;2023-04-03T00:31:48;1.50;;;0.65;;
60016;SDS011;45869;52.698;6.210;2023-04-03T00:34:17;3.85;;;1.30;;
60016;SDS011;45869;52.698;6.210;2023-04-03T00:36:43;3.03;;;0.90;;
60016;SDS011;45869;52.698;6.210;2023-04-03T00:39:12;2.45;;;0.65;;
60016;SDS011;45869;52.698;6.210;2023-04-03T00:41:38;3.35;;;0.80;;
60016;SDS011;45869;52.698;6.210;2023-04-03T00:44:20;2.60;;;0.52;;
60016;SDS011;45869;52.698;6.210;2023-04-03T00:46:50;1.40;;;0.50;;
60016;SDS011;45869;52.698;6.210;2023-04-03T00:49:16;3.35;;;0.68;;
60016;SDS011;45869;52.698;6.210;2023-04-03T00:51:42;4.68;;;0.90;;
60016;SDS011;45869;52.698;6.210;2023-04-03T00:54:08;2.70;;;0.63;;
60016;SDS011;45869;52.698;6.210;2023-04-03T00:56:34;2.88;;;0.80;;
60016;SDS011;45869;52.698;6.210;2023-04-03T00:59:12;4.20;;;0.70;;
60016;SDS011;45869;52.698;6.210;2023-04-03T01:01:39;4.00;;;0.60;;
60016;SDS011;45869;52.698;6.210;2023-04-03T01:09:39;3.28;;;0.57;;
60016;SDS011;45869;52.698;6.210;2023-04-03T01:12:18;1.92;;;0.80;;
60016;SDS011;45869;52.698;6.210;2023-04-03T01:14:46;1.98;;;0.60;;
60016;SDS011;45869;52.698;6.210;2023-04-03T01:22:48;3.30;;;0.68;;
60016;SDS011;45869;52.698;6.210;2023-04-03T01:25:21;3.03;;;0.65;;
60016;SDS011;45869;52.698;6.210;2023-04-03T01:27:47;2.72;;;0.65;;
60016;SDS011;45869;52.698;6.210;2023-04-03T01:30:13;2.58;;;0.65;;
60016;SDS011;45869;52.698;6.210;2023-04-03T01:32:39;5.03;;;0.85;;
60016;SDS011;45869;52.698;6.210;2023-04-03T01:35:07;2.72;;;1.17;;
60016;SDS011;45869;52.698;6.210;2023-04-03T01:37:33;3.75;;;0.70;;
60016;SDS011;45869;52.698;6.210;2023-04-03T01:39:59;3.17;;;0.52;;
60016;SDS011;45869;52.698;6.210;2023-04-03T01:42:25;3.97;;;0.73;;
60016;SDS011;45869;52.698;6.210;2023-04-03T01:44:51;3.33;;;1.00;;
60016;SDS011;45869;52.698;6.210;2023-04-03T01:47:17;2.58;;;0.70;;
60016;SDS011;45869;52.698;6.210;2023-04-03T01:49:43;2.45;;;0.60;;
60016;SDS011;45869;52.698;6.210;2023-04-03T01:52:09;2.60;;;0.85;;
60016;SDS011;45869;52.698;6.210;2023-04-03T01:54:35;3.83;;;0.85;;
60016;SDS011;45869;52.698;6.210;2023-04-03T01:57:01;4.97;;;0.80;;
60016;SDS011;45869;52.698;6.210;2023-04-03T01:59:27;2.88;;;0.80;;
60016;SDS011;45869;52.698;6.210;2023-04-03T02:01:56;4.43;;;0.80;;
60016;SDS011;45869;52.698;6.210;2023-04-03T02:04:22;1.67;;;0.70;;
60016;SDS011;45869;52.698;6.210;2023-04-03T02:06:48;1.92;;;0.70;;
60016;SDS011;45869;52.698;6.210;2023-04-03T02:09:14;3.35;;;0.80;;
60016;SDS011;45869;52.698;6.210;2023-04-03T02:11:40;3.80;;;0.73;;
60016;SDS011;45869;52.698;6.210;2023-04-03T02:14:06;2.55;;;1.10;;
60016;SDS011;45869;52.698;6.210;2023-04-03T02:16:32;3.30;;;0.80;;
60016;SDS011;45869;52.698;6.210;2023-04-03T02:18:58;3.78;;;0.70;;
60016;SDS011;45869;52.698;6.210;2023-04-03T02:21:24;3.75;;;0.85;;
60016;SDS011;45869;52.698;6.210;2023-04-03T02:23:54;3.08;;;0.90;;
60016;SDS011;45869;52.698;6.210;2023-04-03T02:26:23;3.08;;;1.10;;
60016;SDS011;45869;52.698;6.210;2023-04-03T02:28:49;2.38;;;0.85;;
60016;SDS011;45869;52.698;6.210;2023-04-03T02:31:15;5.30;;;1.73;;
60016;SDS011;45869;52.698;6.210;2023-04-03T02:33:41;2.78;;;0.88;;
60016;SDS011;45869;52.698;6.210;2023-04-03T02:36:11;4.28;;;1.63;;
60016;SDS011;45869;52.698;6.210;2023-04-03T02:38:43;2.58;;;0.98;;
60016;SDS011;45869;52.698;6.210;2023-04-03T02:41:09;3.83;;;1.10;;
60016;SDS011;45869;52.698;6.210;2023-04-03T02:43:36;2.38;;;0.85;;
60016;SDS011;45869;52.698;6.210;2023-04-03T02:46:02;5.70;;;0.90;;
60016;SDS011;45869;52.698;6.210;2023-04-03T02:48:28;2.40;;;0.93;;
60016;SDS011;45869;52.698;6.210;2023-04-03T02:50:54;3.67;;;0.93;;
60016;SDS011;45869;52.698;6.210;2023-04-03T02:53:20;3.47;;;1.23;;
60016;SDS011;45869;52.698;6.210;2023-04-03T02:55:46;2.50;;;0.93;;
60016;SDS011;45869;52.698;6.210;2023-04-03T02:58:12;2.38;;;0.80;;
60016;SDS011;45869;52.698;6.210;2023-04-03T03:00:39;5.25;;;0.90;;
60016;SDS011;45869;52.698;6.210;2023-04-03T03:03:05;3.00;;;1.02;;
60016;SDS011;45869;52.698;6.210;2023-04-03T03:05:31;2.97;;;0.90;;
60016;SDS011;45869;52.698;6.210;2023-04-03T03:08:03;3.50;;;1.02;;
60016;SDS011;45869;52.698;6.210;2023-04-03T03:10:32;4.88;;;1.08;;
60016;SDS011;45869;52.698;6.210;2023-04-03T03:12:58;4.07;;;1.10;;
60016;SDS011;45869;52.698;6.210;2023-04-03T03:15:24;3.90;;;1.20;;
60016;SDS011;45869;52.698;6.210;2023-04-03T03:17:53;2.83;;;0.90;;
60016;SDS011;45869;52.698;6.210;2023-04-03T03:20:19;5.05;;;1.27;;
60016;SDS011;45869;52.698;6.210;2023-04-03T03:22:45;2.70;;;1.10;;
60016;SDS011;45869;52.698;6.210;2023-04-03T03:25:11;2.25;;;1.10;;
60016;SDS011;45869;52.698;6.210;2023-04-03T03:27:37;4.40;;;1.15;;
60016;SDS011;45869;52.698;6.210;2023-04-03T03:30:04;3.53;;;1.02;;
60016;SDS011;45869;52.698;6.210;2023-04-03T03:32:30;4.63;;;1.67;;
60016;SDS011;45869;52.698;6.210;2023-04-03T03:34:59;5.50;;;1.55;;
60016;SDS011;45869;52.698;6.210;2023-04-03T03:37:25;2.92;;;1.17;;
60016;SDS011;45869;52.698;6.210;2023-04-03T03:39:52;4.45;;;1.20;;
60016;SDS011;45869;52.698;6.210;2023-04-03T03:42:18;5.47;;;1.27;;
60016;SDS011;45869;52.698;6.210;2023-04-03T03:44:44;3.22;;;1.15;;
60016;SDS011;45869;52.698;6.210;2023-04-03T03:47:10;5.53;;;1.02;;
60016;SDS011;45869;52.698;6.210;2023-04-03T03:49:36;3.60;;;1.08;;
60016;SDS011;45869;52.698;6.210;2023-04-03T03:52:02;3.88;;;1.40;;
60016;SDS011;45869;52.698;6.210;2023-04-03T03:54:28;3.95;;;1.42;;
60016;SDS011;45869;52.698;6.210;2023-04-03T03:56:54;4.80;;;1.67;;
60016;SDS011;45869;52.698;6.210;2023-04-03T03:59:20;4.10;;;1.05;;
60016;SDS011;45869;52.698;6.210;2023-04-03T04:01:46;2.92;;;1.17;;
60016;SDS011;45869;52.698;6.210;2023-04-03T04:04:12;3.33;;;1.13;;
60016;SDS011;45869;52.698;6.210;2023-04-03T04:06:38;3.47;;;1.45;;
60016;SDS011;45869;52.698;6.210;2023-04-03T04:09:04;4.43;;;1.38;;
60016;SDS011;45869;52.698;6.210;2023-04-03T04:11:30;2.67;;;1.10;;
60016;SDS011;45869;52.698;6.210;2023-04-03T04:13:58;6.38;;;1.20;;
60016;SDS011;45869;52.698;6.210;2023-04-03T04:16:24;3.78;;;1.23;;
60016;SDS011;45869;52.698;6.210;2023-04-03T04:18:50;4.50;;;1.10;;
60016;SDS011;45869;52.698;6.210;2023-04-03T04:21:16;4.13;;;1.10;;
60016;SDS011;45869;52.698;6.210;2023-04-03T04:23:42;3.92;;;1.40;;
60016;SDS011;45869;52.698;6.210;2023-04-03T04:26:08;4.88;;;1.55;;
60016;SDS011;45869;52.698;6.210;2023-04-03T04:28:34;4.38;;;1.30;;
60016;SDS011;45869;52.698;6.210;2023-04-03T04:31:00;5.90;;;1.30;;
60016;SDS011;45869;52.698;6.210;2023-04-03T04:33:26;2.85;;;1.23;;
60016;SDS011;45869;52.698;6.210;2023-04-03T04:35:52;4.32;;;1.92;;
60016;SDS011;45869;52.698;6.210;2023-04-03T04:38:18;9.48;;;1.50;;
60016;SDS011;45869;52.698;6.210;2023-04-03T04:40:47;5.47;;;1.50;;
60016;SDS011;45869;52.698;6.210;2023-04-03T04:43:16;3.13;;;1.33;;
60016;SDS011;45869;52.698;6.210;2023-04-03T04:45:42;4.80;;;1.52;;
60016;SDS011;45869;52.698;6.210;2023-04-03T04:48:08;4.75;;;1.35;;
60016;SDS011;45869;52.698;6.210;2023-04-03T04:50:34;5.65;;;1.40;;
60016;SDS011;45869;52.698;6.210;2023-04-03T04:53:03;3.13;;;1.25;;
60016;SDS011;45869;52.698;6.210;2023-04-03T04:55:30;3.85;;;1.48;;
60016;SDS011;45869;52.698;6.210;2023-04-03T04:57:56;4.82;;;1.50;;
60016;SDS011;45869;52.698;6.210;2023-04-03T05:00:22;2.97;;;1.50;;
60016;SDS011;45869;52.698;6.210;2023-04-03T05:02:48;6.20;;;1.50;;
60016;SDS011;45869;52.698;6.210;2023-04-03T05:05:14;4.18;;;1.40;;
60016;SDS011;45869;52.698;6.210;2023-04-03T05:07:40;5.05;;;1.40;;
60016;SDS011;45869;52.698;6.210;2023-04-03T05:10:07;4.70;;;1.30;;
60016;SDS011;45869;52.698;6.210;2023-04-03T05:12:37;5.10;;;1.45;;
60016;SDS011;45869;52.698;6.210;2023-04-03T05:15:03;4.53;;;1.38;;
60016;SDS011;45869;52.698;6.210;2023-04-03T05:17:32;2.88;;;1.40;;
60016;SDS011;45869;52.698;6.210;2023-04-03T05:19:58;3.83;;;1.35;;
60016;SDS011;45869;52.698;6.210;2023-04-03T05:22:24;5.93;;;1.90;;
60016;SDS011;45869;52.698;6.210;2023-04-03T05:24:50;6.88;;;1.40;;
60016;SDS011;45869;52.698;6.210;2023-04-03T05:27:16;6.38;;;1.80;;
60016;SDS011;45869;52.698;6.210;2023-04-03T05:29:42;5.40;;;1.65;;
60016;SDS011;45869;52.698;6.210;2023-04-03T05:32:11;7.03;;;1.70;;
60016;SDS011;45869;52.698;6.210;2023-04-03T05:34:37;6.22;;;1.70;;
60016;SDS011;45869;52.698;6.210;2023-04-03T05:37:03;5.18;;;1.70;;
60016;SDS011;45869;52.698;6.210;2023-04-03T05:39:32;4.65;;;1.27;;
60016;SDS011;45869;52.698;6.210;2023-04-03T05:41:58;7.38;;;1.80;;
60016;SDS011;45869;52.698;6.210;2023-04-03T05:44:25;4.47;;;1.40;;
60016;SDS011;45869;52.698;6.210;2023-04-03T05:46:53;8.00;;;2.75;;
60016;SDS011;45869;52.698;6.210;2023-04-03T05:49:20;4.50;;;1.73;;
60016;SDS011;45869;52.698;6.210;2023-04-03T05:51:46;4.10;;;1.77;;
60016;SDS011;45869;52.698;6.210;2023-04-03T05:54:24;7.45;;;1.75;;
60016;SDS011;45869;52.698;6.210;2023-04-03T05:56:51;5.72;;;1.75;;
60016;SDS011;45869;52.698;6.210;2023-04-03T05:59:23;6.53;;;1.80;;
60016;SDS011;45869;52.698;6.210;2023-04-03T06:01:49;5.80;;;2.58;;
60016;SDS011;45869;52.698;6.210;2023-04-03T06:04:15;4.63;;;1.77;;
60016;SDS011;45869;52.698;6.210;2023-04-03T06:06:45;21.35;;;2.15;;
60016;SDS011;45869;52.698;6.210;2023-04-03T06:09:12;8.43;;;1.45;;
60016;SDS011;45869;52.698;6.210;2023-04-03T06:11:38;4.32;;;1.58;;
60016;SDS011;45869;52.698;6.210;2023-04-03T06:14:08;5.70;;;1.58;;
60016;SDS011;45869;52.698;6.210;2023-04-03T06:16:34;9.10;;;1.75;;
60016;SDS011;45869;52.698;6.210;2023-04-03T06:19:00;9.52;;;1.90;;
60016;SDS011;45869;52.698;6.210;2023-04-03T06:21:26;5.93;;;1.50;;
60016;SDS011;45869;52.698;6.210;2023-04-03T06:23:55;6.75;;;1.33;;
60016;SDS011;45869;52.698;6.210;2023-04-03T06:26:21;6.30;;;1.85;;
60016;SDS011;45869;52.698;6.210;2023-04-03T06:28:47;5.03;;;1.48;;
60016;SDS011;45869;52.698;6.210;2023-04-03T06:31:13;2.85;;;1.40;;
60016;SDS011;45869;52.698;6.210;2023-04-03T06:33:39;4.35;;;1.45;;
60016;SDS011;45869;52.698;6.210;2023-04-03T06:36:05;4.78;;;1.80;;
60016;SDS011;45869;52.698;6.210;2023-04-03T06:38:32;6.03;;;1.73;;
60016;SDS011;45869;52.698;6.210;2023-04-03T06:40:58;4.97;;;1.70;;
60016;SDS011;45869;52.698;6.210;2023-04-03T06:43:27;6.78;;;1.48;;
60016;SDS011;45869;52.698;6.210;2023-04-03T06:45:56;6.22;;;1.40;;
60016;SDS011;45869;52.698;6.210;2023-04-03T06:48:22;5.32;;;1.50;;
60016;SDS011;45869;52.698;6.210;2023-04-03T06:50:48;4.13;;;1.25;;
60016;SDS011;45869;52.698;6.210;2023-04-03T06:53:15;6.00;;;1.50;;
60016;SDS011;45869;52.698;6.210;2023-04-03T06:55:47;7.50;;;1.33;;
60016;SDS011;45869;52.698;6.210;2023-04-03T06:58:16;9.35;;;1.70;;
60016;SDS011;45869;52.698;6.210;2023-04-03T07:00:42;4.95;;;1.30;;
60016;SDS011;45869;52.698;6.210;2023-04-03T07:03:11;5.28;;;1.60;;
60016;SDS011;45869;52.698;6.210;2023-04-03T07:05:37;6.22;;;1.45;;
60016;SDS011;45869;52.698;6.210;2023-04-03T07:08:04;5.70;;;1.65;;
60016;SDS011;45869;52.698;6.210;2023-04-03T07:10:30;3.92;;;1.40;;
60016;SDS011;45869;52.698;6.210;2023-04-03T07:12:56;5.47;;;1.50;;
60016;SDS011;45869;52.698;6.210;2023-04-03T07:15:22;3.35;;;1.13;;
60016;SDS011;45869;52.698;6.210;2023-04-03T07:17:49;4.75;;;1.10;;
60016;SDS011;45869;52.698;6.210;2023-04-03T07:20:15;4.75;;;1.35;;
60016;SDS011;45869;52.698;6.210;2023-04-03T07:22:42;5.20;;;1.25;;
60016;SDS011;45869;52.698;6.210;2023-04-03T07:25:08;3.90;;;1.00;;
60016;SDS011;45869;52.698;6.210;2023-04-03T07:27:35;4.72;;;1.02;;
60016;SDS011;45869;52.698;6.210;2023-04-03T07:30:01;5.32;;;1.13;;
60016;SDS011;45869;52.698;6.210;2023-04-03T07:32:28;5.13;;;1.10;;
60016;SDS011;45869;52.698;6.210;2023-04-03T07:34:54;4.32;;;1.30;;
60016;SDS011;45869;52.698;6.210;2023-04-03T07:37:20;7.28;;;1.10;;
60016;SDS011;45869;52.698;6.210;2023-04-03T07:39:47;2.63;;;0.93;;
60016;SDS011;45869;52.698;6.210;2023-04-03T07:42:13;4.47;;;1.00;;
60016;SDS011;45869;52.698;6.210;2023-04-03T07:44:39;3.33;;;0.80;;
60016;SDS011;45869;52.698;6.210;2023-04-03T07:47:06;6.82;;;1.00;;
60016;SDS011;45869;52.698;6.210;2023-04-03T07:49:32;3.95;;;0.93;;
60016;SDS011;45869;52.698;6.210;2023-04-03T07:52:06;4.50;;;1.08;;
60016;SDS011;45869;52.698;6.210;2023-04-03T07:54:33;4.28;;;1.00;;
60016;SDS011;45869;52.698;6.210;2023-04-03T07:57:00;3.17;;;0.85;;
60016;SDS011;45869;52.698;6.210;2023-04-03T07:59:26;3.58;;;1.27;;
60016;SDS011;45869;52.698;6.210;2023-04-03T08:01:52;3.15;;;0.90;;
60016;SDS011;45869;52.698;6.210;2023-04-03T08:04:21;2.78;;;0.80;;
60016;SDS011;45869;52.698;6.210;2023-04-03T08:06:47;3.10;;;0.70;;
60016;SDS011;45869;52.698;6.210;2023-04-03T08:09:16;3.60;;;1.10;;
60016;SDS011;45869;52.698;6.210;2023-04-03T08:11:42;3.22;;;0.95;;
60016;SDS011;45869;52.698;6.210;2023-04-03T08:14:09;3.90;;;1.10;;
60016;SDS011;45869;52.698;6.210;2023-04-03T08:16:40;3.70;;;1.15;;
60016;SDS011;45869;52.698;6.210;2023-04-03T08:19:06;3.30;;;0.90;;
60016;SDS011;45869;52.698;6.210;2023-04-03T08:21:33;3.03;;;1.08;;
60016;SDS011;45869;52.698;6.210;2023-04-03T08:23:59;3.20;;;1.15;;
60016;SDS011;45869;52.698;6.210;2023-04-03T08:26:25;3.33;;;1.00;;
60016;SDS011;45869;52.698;6.210;2023-04-03T08:28:51;4.47;;;1.17;;
60016;SDS011;45869;52.698;6.210;2023-04-03T08:31:18;2.92;;;0.80;;
60016;SDS011;45869;52.698;6.210;2023-04-03T08:33:47;2.85;;;0.82;;
60016;SDS011;45869;52.698;6.210;2023-04-03T08:36:16;3.03;;;0.90;;
60016;SDS011;45869;52.698;6.210;2023-04-03T08:38:45;4.07;;;1.08;;
60016;SDS011;45869;52.698;6.210;2023-04-03T08:41:31;2.80;;;0.80;;
60016;SDS011;45869;52.698;6.210;2023-04-03T08:54:55;3.92;;;0.80;;
60016;SDS011;45869;52.698;6.210;2023-04-03T08:57:57;1.60;;;0.60;;
60016;SDS011;45869;52.698;6.210;2023-04-03T09:00:18;2.70;;;0.60;;
60016;SDS011;45869;52.698;6.210;2023-04-03T09:02:49;3.80;;;0.77;;
60016;SDS011;45869;52.698;6.210;2023-04-03T09:05:19;3.58;;;0.70;;
60016;SDS011;45869;52.698;6.210;2023-04-03T09:07:50;2.25;;;0.63;;
60016;SDS011;45869;52.698;6.210;2023-04-03T09:10:23;2.70;;;0.50;;
60016;SDS011;45869;52.698;6.210;2023-04-03T09:12:59;2.55;;;0.55;;
60016;SDS011;45869;52.698;6.210;2023-04-03T09:15:26;2.67;;;0.50;;
60016;SDS011;45869;52.698;6.210;2023-04-03T09:23:44;1.95;;;0.52;;
60016;SDS011;45869;52.698;6.210;2023-04-03T09:26:16;2.33;;;0.40;;
60016;SDS011;45869;52.698;6.210;2023-04-03T09:28:44;2.47;;;0.52;;
60016;SDS011;45869;52.698;6.210;2023-04-03T09:31:16;1.73;;;0.50;;
60016;SDS011;45869;52.698;6.210;2023-04-03T09:33:44;2.03;;;0.40;;
60016;SDS011;45869;52.698;6.210;2023-04-03T09:36:11;2.75;;;0.50;;
60016;SDS011;45869;52.698;6.210;2023-04-03T09:38:37;2.55;;;0.43;;
60016;SDS011;45869;52.698;6.210;2023-04-03T09:41:05;2.88;;;0.47;;
60016;SDS011;45869;52.698;6.210;2023-04-03T09:43:32;1.85;;;0.40;;
60016;SDS011;45869;52.698;6.210;2023-04-03T09:48:50;2.47;;;0.40;;
60016;SDS011;45869;52.698;6.210;2023-04-03T09:51:17;1.30;;;0.20;;
60016;SDS011;45869;52.698;6.210;2023-04-03T09:53:43;1.15;;;0.40;;
60016;SDS011;45869;52.698;6.210;2023-04-03T09:58:43;2.30;;;0.40;;
60016;SDS011;45869;52.698;6.210;2023-04-03T10:04:05;1.77;;;0.40;;
60016;SDS011;45869;52.698;6.210;2023-04-03T10:06:32;2.78;;;0.50;;
60016;SDS011;45869;52.698;6.210;2023-04-03T10:14:27;1.75;;;0.40;;
60016;SDS011;45869;52.698;6.210;2023-04-03T10:17:17;1.50;;;0.25;;
60016;SDS011;45869;52.698;6.210;2023-04-03T10:22:20;2.53;;;0.30;;
60016;SDS011;45869;52.698;6.210;2023-04-03T10:25:00;1.55;;;0.30;;
60016;SDS011;45869;52.698;6.210;2023-04-03T10:27:49;2.13;;;0.30;;
60016;SDS011;45869;52.698;6.210;2023-04-03T10:30:27;1.27;;;0.30;;
60016;SDS011;45869;52.698;6.210;2023-04-03T10:38:05;3.28;;;0.40;;
60016;SDS011;45869;52.698;6.210;2023-04-03T10:45:55;2.40;;;0.35;;
60016;SDS011;45869;52.698;6.210;2023-04-03T10:50:58;1.95;;;0.30;;
60016;SDS011;45869;52.698;6.210;2023-04-03T10:53:36;1.17;;;0.30;;
60016;SDS011;45869;52.698;6.210;2023-04-03T10:58:50;1.75;;;0.40;;
60016;SDS011;45869;52.698;6.210;2023-04-03T11:01:23;1.58;;;0.40;;
60016;SDS011;45869;52.698;6.210;2023-04-03T11:03:54;1.83;;;0.30;;
60016;SDS011;45869;52.698;6.210;2023-04-03T11:06:22;3.05;;;0.50;;
60016;SDS011;45869;52.698;6.210;2023-04-03T11:08:55;2.17;;;0.30;;
60016;SDS011;45869;52.698;6.210;2023-04-03T11:11:30;2.67;;;0.40;;
60016;SDS011;45869;52.698;6.210;2023-04-03T11:14:00;2.20;;;0.40;;
60016;SDS011;45869;52.698;6.210;2023-04-03T11:16:27;0.90;;;0.30;;
60016;SDS011;45869;52.698;6.210;2023-04-03T11:18:56;1.98;;;0.35;;
60016;SDS011;45869;52.698;6.210;2023-04-03T11:23:52;1.52;;;0.40;;
60016;SDS011;45869;52.698;6.210;2023-04-03T11:26:19;1.60;;;0.43;;
60016;SDS011;45869;52.698;6.210;2023-04-03T11:28:46;1.25;;;0.32;;
60016;SDS011;45869;52.698;6.210;2023-04-03T11:34:13;1.67;;;0.35;;
60016;SDS011;45869;52.698;6.210;2023-04-03T11:36:44;3.47;;;0.52;;
60016;SDS011;45869;52.698;6.210;2023-04-03T11:42:13;2.95;;;0.50;;
60016;SDS011;45869;52.698;6.210;2023-04-03T11:44:40;3.33;;;0.40;;
60016;SDS011;45869;52.698;6.210;2023-04-03T11:47:07;1.77;;;0.40;;
60016;SDS011;45869;52.698;6.210;2023-04-03T12:16:24;1.58;;;0.40;;
60016;SDS011;45869;52.698;6.210;2023-04-03T12:21:21;2.30;;;0.50;;
60016;SDS011;45869;52.698;6.210;2023-04-03T12:39:43;1.33;;;0.40;;
60016;SDS011;45869;52.698;6.210;2023-04-03T12:47:27;1.88;;;0.40;;
60016;SDS011;45869;52.698;6.210;2023-04-03T12:49:54;1.65;;;0.40;;
60016;SDS011;45869;52.698;6.210;2023-04-03T12:52:40;3.20;;;0.60;;
60016;SDS011;45869;52.698;6.210;2023-04-03T12:55:08;2.63;;;0.50;;
60016;SDS011;45869;52.698;6.210;2023-04-03T12:57:40;4.03;;;0.60;;
60016;SDS011;45869;52.698;6.210;2023-04-03T13:00:19;2.35;;;0.50;;
60016;SDS011;45869;52.698;6.210;2023-04-03T13:02:46;1.17;;;0.40;;
60016;SDS011;45869;52.698;6.210;2023-04-03T13:05:19;2.80;;;0.63;;
60016;SDS011;45869;52.698;6.210;2023-04-03T13:07:48;1.90;;;0.50;;
60016;SDS011;45869;52.698;6.210;2023-04-03T13:10:16;1.90;;;0.60;;
60016;SDS011;45869;52.698;6.210;2023-04-03T13:12:46;2.22;;;0.50;;
60016;SDS011;45869;52.698;6.210;2023-04-03T13:15:14;3.67;;;0.60;;
60016;SDS011;45869;52.698;6.210;2023-04-03T13:17:41;1.63;;;0.50;;
60016;SDS011;45869;52.698;6.210;2023-04-03T13:20:12;2.25;;;0.50;;
60016;SDS011;45869;52.698;6.210;2023-04-03T13:23:00;1.80;;;0.40;;
60016;SDS011;45869;52.698;6.210;2023-04-03T13:25:25;2.70;;;0.50;;
60016;SDS011;45869;52.698;6.210;2023-04-03T13:27:52;1.98;;;0.65;;
60016;SDS011;45869;52.698;6.210;2023-04-03T13:30:26;3.33;;;0.80;;
60016;SDS011;45869;52.698;6.210;2023-04-03T13:35:25;2.40;;;0.60;;
60016;SDS011;45869;52.698;6.210;2023-04-03T13:38:00;3.13;;;0.50;;
60016;SDS011;45869;52.698;6.210;2023-04-03T13:40:26;1.80;;;0.50;;
60016;SDS011;45869;52.698;6.210;2023-04-03T13:43:03;3.30;;;0.77;;
60016;SDS011;45869;52.698;6.210;2023-04-03T13:45:31;2.72;;;0.57;;
60016;SDS011;45869;52.698;6.210;2023-04-03T13:48:09;1.92;;;0.60;;
60016;SDS011;45869;52.698;6.210;2023-04-03T13:50:49;1.90;;;0.50;;
60016;SDS011;45869;52.698;6.210;2023-04-03T13:53:16;1.63;;;0.70;;
60016;SDS011;45869;52.698;6.210;2023-04-03T13:55:59;2.97;;;0.60;;
60016;SDS011;45869;52.698;6.210;2023-04-03T13:58:26;3.38;;;0.50;;
60016;SDS011;45869;52.698;6.210;2023-04-03T14:03:30;1.95;;;0.47;;
60016;SDS011;45869;52.698;6.210;2023-04-03T14:05:56;3.08;;;0.60;;
60016;SDS011;45869;52.698;6.210;2023-04-03T14:08:22;3.05;;;0.80;;
60016;SDS011;45869;52.698;6.210;2023-04-03T14:10:48;2.40;;;0.77;;
60016;SDS011;45869;52.698;6.210;2023-04-03T14:13:18;3.47;;;0.70;;
60016;SDS011;45869;52.698;6.210;2023-04-03T14:15:45;2.22;;;0.70;;
60016;SDS011;45869;52.698;6.210;2023-04-03T14:18:14;1.92;;;0.70;;
60016;SDS011;45869;52.698;6.210;2023-04-03T14:20:40;2.17;;;0.80;;
60016;SDS011;45869;52.698;6.210;2023-04-03T14:23:07;3.72;;;0.70;;
60016;SDS011;45869;52.698;6.210;2023-04-03T14:25:33;2.78;;;0.70;;
60016;SDS011;45869;52.698;6.210;2023-04-03T14:27:59;2.22;;;0.50;;
60016;SDS011;45869;52.698;6.210;2023-04-03T14:30:32;1.83;;;0.70;;
60016;SDS011;45869;52.698;6.210;2023-04-03T14:32:59;1.92;;;0.65;;
60016;SDS011;45869;52.698;6.210;2023-04-03T14:35:25;1.90;;;0.70;;
60016;SDS011;45869;52.698;6.210;2023-04-03T14:37:52;1.73;;;0.63;;
60016;SDS011;45869;52.698;6.210;2023-04-03T14:40:19;2.45;;;0.73;;
60016;SDS011;45869;52.698;6.210;2023-04-03T14:42:46;3.95;;;1.08;;
60016;SDS011;45869;52.698;6.210;2023-04-03T14:45:13;2.70;;;0.80;;
60016;SDS011;45869;52.698;6.210;2023-04-03T14:50:35;3.50;;;0.73;;
60016;SDS011;45869;52.698;6.210;2023-04-03T14:53:01;2.05;;;0.73;;
60016;SDS011;45869;52.698;6.210;2023-04-03T14:55:36;3.53;;;0.88;;
60016;SDS011;45869;52.698;6.210;2023-04-03T14:58:05;3.30;;;1.10;;
60016;SDS011;45869;52.698;6.210;2023-04-03T15:00:31;2.85;;;0.70;;
60016;SDS011;45869;52.698;6.210;2023-04-03T15:03:00;2.97;;;0.73;;
60016;SDS011;45869;52.698;6.210;2023-04-03T15:05:29;2.63;;;0.90;;
60016;SDS011;45869;52.698;6.210;2023-04-03T15:07:55;2.63;;;0.80;;
60016;SDS011;45869;52.698;6.210;2023-04-03T15:10:29;2.60;;;0.80;;
60016;SDS011;45869;52.698;6.210;2023-04-03T15:12:55;2.88;;;1.00;;
60016;SDS011;45869;52.698;6.210;2023-04-03T15:15:22;3.35;;;0.90;;
60016;SDS011;45869;52.698;6.210;2023-04-03T15:17:53;2.40;;;1.00;;
60016;SDS011;45869;52.698;6.210;2023-04-03T15:20:20;2.08;;;0.80;;
60016;SDS011;45869;52.698;6.210;2023-04-03T15:22:47;1.80;;;0.80;;
60016;SDS011;45869;52.698;6.210;2023-04-03T15:25:13;3.58;;;0.90;;
60016;SDS011;45869;52.698;6.210;2023-04-03T15:27:39;4.15;;;0.98;;
60016;SDS011;45869;52.698;6.210;2023-04-03T15:30:06;2.95;;;0.80;;
60016;SDS011;45869;52.698;6.210;2023-04-03T15:32:33;2.67;;;1.00;;
60016;SDS011;45869;52.698;6.210;2023-04-03T15:35:00;3.65;;;1.08;;
60016;SDS011;45869;52.698;6.210;2023-04-03T15:37:26;2.35;;;0.80;;
60016;SDS011;45869;52.698;6.210;2023-04-03T15:39:53;4.07;;;1.02;;
60016;SDS011;45869;52.698;6.210;2023-04-03T15:42:19;3.58;;;1.30;;
60016;SDS011;45869;52.698;6.210;2023-04-03T15:44:45;3.35;;;0.98;;
60016;SDS011;45869;52.698;6.210;2023-04-03T15:47:11;4.47;;;1.10;;
60016;SDS011;45869;52.698;6.210;2023-04-03T15:49:37;4.07;;;1.27;;
60016;SDS011;45869;52.698;6.210;2023-04-03T15:52:03;2.45;;;0.98;;
60016;SDS011;45869;52.698;6.210;2023-04-03T15:54:30;3.63;;;1.00;;
60016;SDS011;45869;52.698;6.210;2023-04-03T15:56:56;3.05;;;1.00;;
60016;SDS011;45869;52.698;6.210;2023-04-03T15:59:22;4.53;;;1.13;;
60016;SDS011;45869;52.698;6.210;2023-04-03T16:01:48;2.35;;;1.00;;
60016;SDS011;45869;52.698;6.210;2023-04-03T16:04:15;4.40;;;1.10;;
60016;SDS011;45869;52.698;6.210;2023-04-03T16:06:41;3.25;;;1.00;;
60016;SDS011;45869;52.698;6.210;2023-04-03T16:09:07;2.47;;;1.02;;
60016;SDS011;45869;52.698;6.210;2023-04-03T16:11:33;2.35;;;0.80;;
60016;SDS011;45869;52.698;6.210;2023-04-03T16:14:05;2.80;;;1.25;;
60016;SDS011;45869;52.698;6.210;2023-04-03T16:16:38;2.72;;;1.10;;
60016;SDS011;45869;52.698;6.210;2023-04-03T16:19:04;2.83;;;1.17;;
60016;SDS011;45869;52.698;6.210;2023-04-03T16:21:34;4.63;;;1.10;;
60016;SDS011;45869;52.698;6.210;2023-04-03T16:24:02;3.25;;;1.20;;
60016;SDS011;45869;52.698;6.210;2023-04-03T16:26:32;3.58;;;1.10;;
60016;SDS011;45869;52.698;6.210;2023-04-03T16:28:58;2.78;;;1.08;;
60016;SDS011;45869;52.698;6.210;2023-04-03T16:31:24;4.68;;;1.63;;
60016;SDS011;45869;52.698;6.210;2023-04-03T16:33:51;9.18;;;3.00;;
60016;SDS011;45869;52.698;6.210;2023-04-03T16:36:17;3.97;;;1.23;;
60016;SDS011;45869;52.698;6.210;2023-04-03T16:38:43;10.65;;;2.50;;
60016;SDS011;45869;52.698;6.210;2023-04-03T16:41:09;2.35;;;0.90;;
60016;SDS011;45869;52.698;6.210;2023-04-03T16:43:35;3.40;;;0.85;;
60016;SDS011;45869;52.698;6.210;2023-04-03T16:46:02;4.55;;;0.90;;
60016;SDS011;45869;52.698;6.210;2023-04-03T16:48:28;4.00;;;1.05;;
60016;SDS011;45869;52.698;6.210;2023-04-03T16:50:54;3.38;;;1.00;;
60016;SDS011;45869;52.698;6.210;2023-04-03T16:53:21;3.55;;;1.20;;
60016;SDS011;45869;52.698;6.210;2023-04-03T16:55:50;2.65;;;1.00;;
60016;SDS011;45869;52.698;6.210;2023-04-03T16:58:19;4.22;;;1.10;;